createdAt,value
2022-09-04T00:02:12.327Z,28.30
2022-09-04T00:05:12.101Z,27.10
2022-09-04T00:08:25.793Z,29.30
2022-09-04T00:10:56.753Z,31.10
2022-09-04T00:13:41.973Z,29.00
2022-09-04T00:16:17.331Z,28.00
2022-09-04T00:19:02.328Z,30.70
2022-09-04T00:21:56.609Z,30.00
2022-09-04T00:24:55.434Z,29.70
2022-09-04T00:27:30.774Z,33.00
2022-09-04T00:30:05.422Z,30.90
2022-09-04T00:32:49.544Z,31.20
2022-09-04T00:35:51.672Z,29.70
2022-09-04T00:39:00.636Z,30.70
2022-09-04T00:41:58.493Z,30.60
2022-09-04T00:44:52.570Z,32.90
2022-09-04T00:47:51.425Z,32.40
2022-09-04T00:51:15.783Z,30.30
2022-09-04T00:54:10.509Z,30.50
2022-09-04T00:57:35.148Z,29.80
2022-09-04T01:00:15.976Z,30.90
2022-09-04T01:03:01.602Z,32.10
2022-09-04T01:05:47.343Z,31.40
2022-09-04T01:08:56.405Z,32.50
2022-09-04T01:11:43.947Z,30.50
2022-09-04T01:14:49.117Z,31.90
2022-09-04T01:17:43.990Z,32.70
2022-09-04T01:21:15.451Z,31.50
2022-09-04T01:23:48.838Z,32.40
2022-09-04T01:26:48.563Z,30.50
2022-09-04T01:29:24.101Z,31.40
2022-09-04T01:32:07.230Z,31.40
2022-09-04T01:34:48.869Z,31.70
2022-09-04T01:38:22.546Z,30.90
2022-09-04T01:41:11.421Z,30.70
2022-09-04T01:43:40.144Z,29.80
2022-09-04T01:46:35.366Z,31.30
2022-09-04T01:49:35.670Z,34.30
2022-09-04T01:52:36.250Z,33.60
2022-09-04T01:55:36.541Z,34.00
2022-09-04T01:58:09.853Z,33.90
2022-09-04T02:00:49.362Z,31.80
2022-09-04T02:03:51.026Z,32.50
2022-09-04T02:06:51.383Z,32.20
2022-09-04T02:09:50.494Z,34.90
2022-09-04T02:12:33.985Z,34.40
2022-09-04T02:16:14.364Z,33.90
2022-09-04T02:19:09.859Z,34.30
2022-09-04T02:21:44.622Z,34.70
2022-09-04T02:24:26.019Z,37.20
2022-09-04T02:27:20.587Z,35.30
2022-09-04T02:30:10.050Z,36.60
2022-09-04T02:33:20.496Z,37.00
2022-09-04T02:36:51.514Z,34.00
2022-09-04T02:40:18.040Z,37.70
2022-09-04T02:43:28.475Z,34.40
2022-09-04T02:46:49.331Z,36.30
2022-09-04T02:49:48.170Z,37.50
2022-09-04T02:53:18.278Z,39.40
2022-09-04T02:56:31.970Z,39.10
2022-09-04T02:59:29.418Z,36.10
2022-09-04T03:02:06.443Z,37.10
2022-09-04T03:04:41.604Z,36.30
2022-09-04T03:07:23.853Z,35.80
2022-09-04T03:10:18.198Z,35.50
2022-09-04T03:12:52.588Z,40.90
2022-09-04T03:15:50.850Z,34.70
2022-09-04T03:18:36.262Z,34.50
2022-09-04T03:21:19.184Z,31.70
2022-09-04T03:23:55.837Z,31.00
2022-09-04T03:26:32.232Z,30.40
2022-09-04T03:29:11.559Z,30.90
2022-09-04T03:32:31.975Z,30.40
2022-09-04T03:35:54.621Z,30.30
2022-09-04T03:38:48.594Z,31.10
2022-09-04T03:41:34.284Z,31.80
2022-09-04T03:44:52.287Z,32.20
2022-09-04T03:47:52.474Z,32.80
2022-09-04T03:50:58.086Z,32.20
2022-09-04T03:53:34.429Z,30.20
2022-09-04T03:56:55.672Z,31.30
2022-09-04T04:00:08.713Z,30.70
2022-09-04T04:03:14.091Z,32.10
2022-09-04T04:06:23.034Z,31.70
2022-09-04T04:09:24.608Z,31.00
2022-09-04T04:14:56.778Z,29.30
2022-09-04T04:17:42.980Z,30.40
2022-09-04T04:20:45.902Z,30.80
2022-09-04T04:23:36.005Z,29.60
2022-09-04T04:26:21.655Z,31.20
2022-09-04T04:29:15.675Z,31.70
2022-09-04T04:32:11.196Z,33.40
2022-09-04T04:35:03.161Z,33.20
2022-09-04T04:37:49.993Z,31.70
2022-09-04T04:40:51.248Z,33.00
2022-09-04T04:43:43.389Z,33.10
2022-09-04T04:46:26.730Z,32.70
2022-09-04T04:49:33.865Z,34.70
2022-09-04T04:52:21.076Z,33.90
2022-09-04T04:55:21.002Z,33.90
2022-09-04T04:58:00.376Z,34.60
2022-09-04T05:01:09.022Z,34.00
2022-09-04T05:04:29.709Z,34.90
2022-09-04T05:07:10.131Z,33.80
2022-09-04T05:09:53.323Z,35.30
2022-09-04T05:12:51.689Z,33.90
2022-09-04T05:16:07.950Z,34.60
2022-09-04T05:18:48.068Z,34.20
2022-09-04T05:21:47.266Z,33.70
2022-09-04T05:24:48.521Z,33.80
2022-09-04T05:27:45.765Z,34.70
2022-09-04T05:30:32.586Z,33.80
2022-09-04T05:34:08.468Z,34.80
2022-09-04T05:36:51.382Z,36.90
2022-09-04T05:40:14.923Z,36.70
2022-09-04T05:43:19.780Z,38.40
2022-09-04T05:45:53.049Z,38.00
2022-09-04T05:49:01.420Z,42.00
2022-09-04T05:52:09.791Z,39.90
2022-09-04T05:55:21.455Z,39.40
2022-09-04T05:58:28.082Z,39.20
2022-09-04T06:01:28.380Z,36.90
2022-09-04T06:04:50.413Z,37.40
2022-09-04T06:07:34.203Z,36.70
2022-09-04T06:10:46.002Z,33.10
2022-09-04T06:13:28.722Z,31.30
2022-09-04T06:16:02.416Z,33.40
2022-09-04T06:19:00.843Z,34.40
2022-09-04T06:21:31.314Z,36.90
2022-09-04T06:25:09.384Z,37.30
2022-09-04T06:28:05.839Z,35.80
2022-09-04T06:31:12.399Z,38.20
2022-09-04T06:34:04.136Z,33.00
2022-09-04T06:37:10.486Z,32.90
2022-09-04T06:40:33.338Z,32.30
2022-09-04T06:43:41.304Z,29.80
2022-09-04T06:46:38.618Z,31.00
2022-09-04T06:49:47.677Z,22.20
2022-09-04T06:52:55.473Z,21.30
2022-09-04T06:56:23.650Z,21.50
2022-09-04T06:59:44.664Z,20.10
2022-09-04T07:02:37.018Z,20.30
2022-09-04T07:05:24.950Z,19.90
2022-09-04T07:08:24.228Z,18.10
2022-09-04T07:11:37.141Z,17.90
2022-09-04T07:14:38.284Z,19.30
2022-09-04T07:17:17.730Z,17.10
2022-09-04T07:20:07.189Z,17.00
2022-09-04T07:23:04.624Z,16.00
2022-09-04T07:26:10.920Z,18.00
2022-09-04T07:29:26.110Z,18.00
2022-09-04T07:32:17.529Z,16.40
2022-09-04T07:34:52.757Z,18.00
2022-09-04T07:37:58.122Z,17.90
2022-09-04T07:40:47.011Z,17.40
2022-09-04T07:43:43.612Z,19.60
2022-09-04T07:46:32.769Z,18.20
2022-09-04T07:49:09.821Z,16.80
2022-09-04T07:51:54.784Z,18.10
2022-09-04T07:55:02.905Z,18.80
2022-09-04T07:58:03.770Z,18.20
2022-09-04T08:00:48.398Z,17.50
2022-09-04T08:04:01.200Z,16.60
2022-09-04T08:07:11.404Z,17.70
2022-09-04T08:10:12.579Z,17.90
2022-09-04T08:12:49.063Z,17.00
2022-09-04T08:15:23.234Z,18.00
2022-09-04T08:18:15.617Z,16.00
2022-09-04T08:21:11.963Z,12.80
2022-09-04T08:24:28.100Z,14.30
2022-09-04T08:27:36.059Z,12.30
2022-09-04T08:30:14.764Z,12.20
2022-09-04T08:33:03.436Z,12.50
2022-09-04T08:35:55.737Z,11.50
2022-09-04T08:39:04.612Z,10.70
2022-09-04T08:42:05.426Z,11.20
2022-09-04T08:45:30.238Z,13.30
2022-09-04T08:48:35.391Z,12.60
2022-09-04T08:51:36.585Z,11.40
2022-09-04T08:54:25.852Z,10.50
2022-09-04T08:57:41.340Z,10.80
2022-09-04T09:00:40.464Z,9.90
2022-09-04T09:03:47.151Z,9.40
2022-09-04T09:06:39.270Z,10.10
2022-09-04T09:09:44.308Z,8.70
2022-09-04T09:12:58.485Z,9.20
2022-09-04T09:15:59.673Z,10.20
2022-09-04T09:21:49.015Z,9.50
2022-09-04T09:24:53.794Z,10.30
2022-09-04T09:27:33.581Z,10.60
2022-09-04T09:30:08.946Z,11.20
2022-09-04T09:33:04.089Z,12.00
2022-09-04T09:35:41.642Z,10.30
2022-09-04T09:38:36.225Z,9.90
2022-09-04T09:41:09.421Z,10.20
2022-09-04T09:44:33.187Z,8.80
2022-09-04T09:47:57.659Z,9.20
2022-09-04T09:51:12.868Z,7.30
2022-09-04T09:54:10.102Z,10.20
2022-09-04T09:57:13.388Z,10.10
2022-09-04T10:00:05.628Z,9.50
2022-09-04T10:02:54.124Z,12.00
2022-09-04T10:05:40.173Z,11.50
2022-09-04T10:08:35.584Z,11.20
2022-09-04T10:11:28.510Z,11.40
2022-09-04T10:14:36.571Z,12.30
2022-09-04T10:17:28.261Z,11.20
2022-09-04T10:20:28.588Z,10.90
2022-09-04T10:23:05.379Z,11.70
2022-09-04T10:25:54.628Z,9.10
2022-09-04T10:29:09.731Z,8.90
2022-09-04T10:31:46.282Z,9.00
2022-09-04T10:34:34.496Z,9.10
2022-09-04T10:37:26.136Z,6.80
2022-09-04T10:40:39.712Z,7.50
2022-09-04T10:43:42.653Z,6.90
2022-09-04T10:46:20.691Z,9.10
2022-09-04T10:49:19.802Z,7.50
2022-09-04T10:52:37.307Z,7.90
2022-09-04T10:55:43.617Z,7.80
2022-09-04T10:58:29.855Z,8.10
2022-09-04T11:01:31.968Z,8.00
2022-09-04T11:04:13.597Z,8.70
2022-09-04T11:07:22.174Z,7.90
2022-09-04T11:13:30.601Z,8.30
2022-09-04T11:16:32.264Z,8.20
2022-09-04T11:19:51.629Z,8.60
2022-09-04T11:23:09.573Z,9.80
2022-09-04T11:26:05.494Z,8.90
2022-09-04T11:28:52.665Z,10.20
2022-09-04T11:31:48.883Z,9.80
2022-09-04T11:34:58.740Z,9.80
2022-09-04T11:38:00.246Z,9.40
2022-09-04T11:41:07.382Z,8.50
2022-09-04T11:44:33.423Z,7.80
2022-09-04T11:47:20.463Z,7.80
2022-09-04T11:50:26.379Z,7.40
2022-09-04T11:53:13.614Z,6.90
2022-09-04T11:56:20.520Z,7.80
2022-09-04T11:59:45.489Z,7.40
2022-09-04T12:02:59.686Z,6.10
2022-09-04T12:06:46.274Z,5.90
2022-09-04T12:09:44.604Z,6.20
2022-09-04T12:12:47.211Z,6.50
2022-09-04T12:15:44.421Z,6.00
2022-09-04T12:18:54.327Z,6.00
2022-09-04T12:22:01.157Z,6.20
2022-09-04T12:25:06.358Z,5.90
2022-09-04T12:28:41.395Z,6.20
2022-09-04T12:31:54.163Z,5.90
2022-09-04T12:35:04.197Z,6.50
2022-09-04T12:38:08.423Z,5.80
2022-09-04T12:41:19.356Z,6.10
2022-09-04T12:44:08.717Z,5.70
2022-09-04T12:47:05.488Z,5.10
2022-09-04T12:50:22.202Z,4.90
2022-09-04T12:53:48.184Z,5.60
2022-09-04T12:56:29.886Z,4.50
2022-09-04T12:59:16.207Z,5.50
2022-09-04T13:01:59.058Z,5.00
2022-09-04T13:05:28.365Z,4.90
2022-09-04T13:08:18.651Z,4.60
2022-09-04T13:11:18.930Z,4.20
2022-09-04T13:14:10.837Z,4.60
2022-09-04T13:16:54.853Z,4.40
2022-09-04T13:20:00.334Z,4.40
2022-09-04T13:22:57.874Z,5.40
2022-09-04T13:25:35.854Z,5.30
2022-09-04T13:28:35.716Z,5.20
2022-09-04T13:31:50.403Z,5.00
2022-09-04T13:34:52.576Z,4.60
2022-09-04T13:38:16.637Z,4.70
2022-09-04T13:40:59.987Z,4.30
2022-09-04T13:43:55.570Z,4.20
2022-09-04T13:46:37.696Z,4.30
2022-09-04T13:49:35.596Z,4.10
2022-09-04T13:52:16.857Z,3.90
2022-09-04T13:54:52.327Z,3.90
2022-09-04T13:57:30.042Z,3.80
2022-09-04T14:00:03.828Z,3.60
2022-09-04T14:02:34.257Z,2.70
2022-09-04T14:05:13.017Z,3.40
2022-09-04T14:07:48.558Z,2.80
2022-09-04T14:11:16.998Z,2.90
2022-09-04T14:14:23.091Z,2.70
2022-09-04T14:16:54.460Z,3.30
2022-09-04T14:19:35.665Z,3.10
2022-09-04T14:28:45.201Z,2.40
2022-09-04T14:30:29.445Z,2.70
2022-09-04T14:31:46.476Z,2.60
2022-09-04T14:34:27.362Z,2.20
2022-09-04T14:37:13.195Z,2.30
2022-09-04T14:40:25.430Z,2.30
2022-09-04T14:43:24.707Z,2.50
2022-09-04T14:46:42.853Z,2.50
2022-09-04T14:49:21.300Z,2.60
2022-09-04T14:51:56.167Z,2.40
2022-09-04T14:54:29.516Z,2.80
2022-09-04T14:57:28.906Z,2.30
2022-09-04T15:00:10.699Z,3.10
2022-09-04T15:03:12.078Z,2.90
2022-09-04T15:06:27.219Z,2.50
2022-09-04T15:09:16.743Z,2.90
2022-09-04T15:11:45.853Z,2.40
2022-09-04T15:14:33.924Z,3.00
2022-09-04T15:17:26.259Z,3.60
2022-09-04T15:20:13.177Z,3.80
2022-09-04T15:23:01.452Z,3.60
2022-09-04T15:26:00.863Z,4.10
2022-09-04T15:28:44.336Z,4.20
2022-09-04T15:31:31.414Z,4.40
2022-09-04T15:34:06.367Z,3.90
2022-09-04T15:36:38.765Z,4.30
2022-09-04T15:39:18.328Z,4.50
2022-09-04T15:41:49.547Z,4.70
2022-09-04T15:44:43.078Z,4.80
2022-09-04T15:47:58.498Z,4.20
2022-09-04T15:50:31.055Z,4.20
2022-09-04T15:53:14.675Z,4.20
2022-09-04T15:55:44.136Z,4.50
2022-09-04T15:58:32.078Z,4.00
2022-09-04T16:01:08.927Z,4.40
2022-09-04T16:03:46.860Z,4.50
2022-09-04T16:06:45.202Z,4.00
2022-09-04T16:09:20.941Z,3.70
2022-09-04T16:12:12.346Z,4.00
2022-09-04T16:14:53.285Z,4.00
2022-09-04T16:17:28.152Z,3.70
2022-09-04T16:20:14.694Z,4.40
2022-09-04T16:22:48.703Z,4.50
2022-09-04T16:25:19.252Z,4.70
2022-09-04T16:28:07.627Z,5.30
2022-09-04T16:30:55.616Z,5.50
2022-09-04T16:33:50.577Z,6.00
2022-09-04T16:36:25.160Z,7.00
2022-09-04T16:39:13.916Z,6.00
2022-09-04T16:42:11.872Z,5.50
2022-09-04T16:44:47.873Z,5.60
2022-09-04T16:47:35.952Z,6.30
2022-09-04T16:50:18.664Z,5.80
2022-09-04T16:53:13.905Z,5.80
2022-09-04T16:55:49.719Z,6.20
2022-09-04T16:58:29.946Z,7.20
2022-09-04T17:01:25.350Z,7.40
2022-09-04T17:04:16.970Z,6.70
2022-09-04T17:06:53.830Z,6.70
2022-09-04T17:09:38.195Z,6.40
2022-09-04T17:12:47.476Z,6.20
2022-09-04T17:15:57.677Z,7.30
2022-09-04T17:18:27.224Z,7.70
2022-09-04T17:26:28.097Z,7.60
2022-09-04T17:29:02.192Z,7.30
2022-09-04T17:29:22.447Z,7.20
2022-09-04T17:31:34.575Z,6.20
2022-09-04T17:40:32.264Z,7.30
2022-09-04T17:40:36.610Z,6.50
2022-09-04T17:41:36.267Z,6.40
2022-09-04T17:44:49.504Z,7.30
2022-09-04T17:47:45.954Z,6.40
2022-09-04T17:50:25.169Z,6.50
2022-09-04T17:53:17.715Z,6.70
2022-09-04T17:56:51.728Z,6.80
2022-09-04T17:59:45.820Z,6.80
2022-09-04T18:02:48.331Z,7.70
2022-09-04T18:05:53.529Z,7.00
2022-09-04T18:08:55.870Z,7.10
2022-09-04T18:11:29.997Z,8.40
2022-09-04T18:14:26.132Z,8.40
2022-09-04T18:17:25.725Z,8.40
2022-09-04T18:20:37.851Z,8.10
2022-09-04T18:23:46.400Z,9.00
2022-09-04T18:26:53.861Z,9.00
2022-09-04T18:32:55.697Z,9.10
2022-09-04T18:37:11.744Z,11.30
2022-09-04T18:37:19.449Z,11.40
2022-09-04T18:39:35.927Z,10.90
2022-09-04T18:50:22.853Z,10.40
2022-09-04T18:50:38.911Z,10.20
2022-09-04T18:50:45.517Z,9.40
2022-09-04T18:51:51.412Z,8.30
2022-09-04T18:54:41.479Z,9.00
2022-09-04T18:57:49.141Z,8.90
2022-09-04T19:01:03.789Z,8.20
2022-09-04T19:04:00.948Z,7.60
2022-09-04T19:07:06.872Z,8.20
2022-09-04T19:10:02.213Z,7.80
2022-09-04T19:16:22.039Z,7.40
2022-09-04T19:19:52.373Z,7.30
2022-09-04T19:23:06.212Z,7.30
2022-09-04T19:26:34.735Z,7.80
2022-09-04T19:29:44.001Z,7.50
2022-09-04T19:32:37.787Z,7.10
2022-09-04T19:35:19.694Z,7.90
2022-09-04T19:43:27.342Z,7.80
2022-09-04T19:46:01.158Z,7.10
2022-09-04T19:46:13.317Z,8.00
2022-09-04T19:53:17.607Z,7.80
2022-09-04T19:53:30.811Z,7.80
2022-09-04T19:56:29.277Z,7.90
2022-09-04T19:59:12.745Z,7.50
2022-09-04T20:02:03.088Z,7.70
2022-09-04T20:05:07.141Z,8.50
2022-09-04T20:08:26.204Z,9.10
2022-09-04T20:11:36.299Z,8.00
2022-09-04T20:14:38.283Z,8.00
2022-09-04T20:17:38.752Z,8.00
2022-09-04T20:20:23.409Z,7.30
2022-09-04T20:23:43.845Z,8.10
2022-09-04T20:26:31.994Z,7.90
2022-09-04T20:29:54.658Z,8.10
2022-09-04T20:32:28.691Z,7.70
2022-09-04T20:35:13.651Z,8.90
2022-09-04T20:38:03.107Z,8.00
2022-09-04T20:40:41.970Z,7.90
2022-09-04T20:43:36.094Z,7.90
2022-09-04T20:49:16.636Z,7.70
2022-09-04T20:53:05.798Z,7.10
2022-09-04T20:55:19.463Z,7.50
2022-09-04T21:03:13.104Z,8.30
2022-09-04T21:03:24.516Z,7.50
2022-09-04T21:05:46.722Z,7.20
2022-09-04T21:08:24.123Z,7.70
2022-09-04T21:11:38.782Z,7.40
2022-09-04T21:14:01.143Z,7.90
2022-09-04T21:17:27.505Z,8.00
2022-09-04T21:20:13.694Z,7.20
2022-09-04T21:22:50.063Z,7.50
2022-09-04T21:25:54.532Z,7.20
2022-09-04T21:29:10.700Z,7.70
2022-09-04T21:32:27.313Z,7.00
2022-09-04T21:35:09.119Z,7.10
2022-09-04T21:37:40.042Z,7.00
2022-09-04T21:40:49.883Z,7.40
2022-09-04T21:43:50.248Z,8.20
2022-09-04T21:46:32.704Z,7.20
2022-09-04T21:49:09.813Z,6.30
2022-09-04T21:51:47.322Z,7.20
2022-09-04T21:57:08.937Z,7.30
2022-09-04T22:02:36.517Z,7.10
2022-09-04T22:02:39.337Z,6.60
2022-09-04T22:05:09.259Z,7.30
2022-09-04T22:13:28.896Z,7.10
2022-09-04T22:13:39.420Z,6.50
2022-09-04T22:14:35.237Z,7.40
2022-09-04T22:17:22.724Z,7.10
2022-09-04T22:20:28.019Z,6.90
2022-09-04T22:23:29.554Z,7.30
2022-09-04T22:26:30.371Z,7.00
2022-09-04T22:29:40.128Z,7.20
2022-09-04T22:32:20.465Z,7.30
2022-09-04T22:35:36.195Z,6.80
2022-09-04T22:38:54.228Z,7.80
2022-09-04T22:42:09.900Z,6.50
2022-09-04T22:44:50.441Z,7.20
2022-09-04T22:47:27.114Z,7.20
2022-09-04T22:50:50.423Z,6.90
2022-09-04T22:53:51.784Z,6.70
2022-09-04T22:56:40.196Z,6.90
2022-09-04T22:59:27.626Z,6.80
2022-09-04T23:03:07.101Z,6.70
2022-09-04T23:06:18.917Z,7.70
2022-09-04T23:13:44.861Z,7.80
2022-09-04T23:13:59.885Z,7.50
2022-09-04T23:15:48.745Z,7.00
2022-09-04T23:20:50.189Z,7.80
2022-09-04T23:26:47.558Z,6.80
2022-09-04T23:26:49.806Z,7.20
2022-09-04T23:28:34.701Z,7.00
2022-09-04T23:31:53.075Z,7.10
2022-09-04T23:35:26.880Z,7.60
2022-09-04T23:39:03.141Z,8.20
2022-09-04T23:42:11.180Z,7.40
2022-09-04T23:45:02.338Z,8.10
2022-09-04T23:48:09.371Z,9.60
2022-09-04T23:51:25.878Z,8.00
2022-09-04T23:54:25.232Z,7.70
2022-09-04T23:57:26.505Z,8.70
